JUST13 YSHW-YSHW
Flight info
| Callsign | JUST13 |
|---|---|
| Flight time | N/A |
| Altitude | 4500 |
| Route | DCT DCT YJBY NWA YSHW DCT |
| Aircraft | H60/M-SDFGRY/LB1 |
Departure
| Time | 2026-05-07 10:31 |
|---|---|
| Airport | Holsworthy (Military) Airport (YSHW) |
Arrival
| Time | N/A |
|---|---|
| Airport | Holsworthy (Military) Airport (YSHW) |
| Time | Latitude | Longitude | Altitude | Speed | Heading |
|---|---|---|---|---|---|
| 2026-05-07 09:02 | -33.99541 | 150.95375 | 246 ft | 0 kts | 124° |
| 2026-05-07 10:28 | -33.99551 | 150.95391 | 247 ft | 4 kts | 135° |
| 2026-05-07 10:28 | -33.99580 | 150.95382 | 248 ft | 5 kts | 214° |
| 2026-05-07 10:29 | -33.99616 | 150.95355 | 248 ft | 8 kts | 212° |
| 2026-05-07 10:29 | -33.99629 | 150.95316 | 249 ft | 4 kts | 304° |
| 2026-05-07 10:29 | -33.99627 | 150.95314 | 249 ft | 0 kts | 305° |
| 2026-05-07 10:30 | -33.99426 | 150.94941 | 476 ft | 74 kts | 288° |
| 2026-05-07 10:30 | -33.99577 | 150.94356 | 497 ft | 82 kts | 224° |
| 2026-05-07 10:30 | -34.00210 | 150.94037 | 660 ft | 127 kts | 204° |
| 2026-05-07 10:30 | -34.01145 | 150.93707 | 623 ft | 144 kts | 202° |
| 2026-05-07 10:31 | -34.02133 | 150.93386 | 782 ft | 149 kts | 198° |
| 2026-05-07 10:31 | -34.03035 | 150.93092 | 857 ft | 123 kts | 195° |
| 2026-05-07 10:31 | -34.03843 | 150.92813 | 1117 ft | 130 kts | 207° |
| 2026-05-07 10:31 | -34.04781 | 150.92352 | 932 ft | 152 kts | 207° |
| 2026-05-07 10:32 | -34.05687 | 150.91750 | 1038 ft | 144 kts | 217° |
| 2026-05-07 10:32 | -34.06577 | 150.91230 | 801 ft | 136 kts | 203° |
| 2026-05-07 10:32 | -34.07307 | 150.90718 | 1152 ft | 143 kts | 213° |
| 2026-05-07 10:32 | -34.08251 | 150.90175 | 1132 ft | 153 kts | 205° |
| 2026-05-07 10:33 | -34.09163 | 150.89970 | 1360 ft | 127 kts | 191° |
| 2026-05-07 10:33 | -34.10120 | 150.89850 | 1008 ft | 130 kts | 191° |
| 2026-05-07 10:33 | -34.11101 | 150.89806 | 1268 ft | 149 kts | 186° |
| 2026-05-07 10:33 | -34.12122 | 150.89739 | 1116 ft | 152 kts | 189° |
| 2026-05-07 10:34 | -34.12983 | 150.89701 | 1497 ft | 106 kts | 187° |
| 2026-05-07 10:34 | -34.13906 | 150.89577 | 1276 ft | 153 kts | 186° |
| 2026-05-07 10:34 | -34.14929 | 150.89532 | 1475 ft | 159 kts | 186° |
| 2026-05-07 10:34 | -34.16012 | 150.89523 | 1406 ft | 150 kts | 183° |
| 2026-05-07 10:35 | -34.17015 | 150.89469 | 1526 ft | 155 kts | 187° |
| 2026-05-07 10:35 | -34.18127 | 150.89486 | 1533 ft | 154 kts | 184° |
| 2026-05-07 10:35 | -34.19164 | 150.89471 | 1565 ft | 154 kts | 187° |
| 2026-05-07 10:35 | -34.20236 | 150.89448 | 1763 ft | 156 kts | 186° |
| 2026-05-07 10:36 | -34.21341 | 150.89376 | 1656 ft | 159 kts | 188° |
| 2026-05-07 10:36 | -34.22454 | 150.89324 | 1773 ft | 156 kts | 187° |
| 2026-05-07 10:36 | -34.23554 | 150.89280 | 1810 ft | 167 kts | 188° |
| 2026-05-07 10:36 | -34.24691 | 150.89225 | 1772 ft | 150 kts | 184° |
| 2026-05-07 10:37 | -34.25638 | 150.89222 | 1820 ft | 126 kts | 195° |
| 2026-05-07 10:37 | -34.26653 | 150.89261 | 1936 ft | 170 kts | 179° |
| 2026-05-07 10:37 | -34.27894 | 150.89407 | 1954 ft | 185 kts | 179° |
| 2026-05-07 10:37 | -34.29000 | 150.89512 | 1993 ft | 125 kts | 184° |
| 2026-05-07 10:38 | -34.29614 | 150.89705 | 2163 ft | 164 kts | 166° |
| 2026-05-07 10:38 | -34.31139 | 150.90096 | 1819 ft | 191 kts | 175° |
| 2026-05-07 10:38 | -34.32014 | 150.90316 | 1829 ft | 197 kts | 170° |
| 2026-05-07 10:38 | -34.33238 | 150.90702 | 1078 ft | 106 kts | 188° |
| 2026-05-07 10:39 | -34.33951 | 150.90724 | 1903 ft | 123 kts | 185° |
| 2026-05-07 10:39 | -34.35036 | 150.91131 | 1648 ft | 194 kts | 162° |
| 2026-05-07 10:39 | -34.36344 | 150.91705 | 1644 ft | 205 kts | 169° |
| 2026-05-07 10:39 | -34.37711 | 150.91721 | 1580 ft | 185 kts | 192° |
| 2026-05-07 10:40 | -34.38928 | 150.91454 | 1754 ft | 173 kts | 195° |
| 2026-05-07 10:40 | -34.40081 | 150.91229 | 1694 ft | 167 kts | 193° |
| 2026-05-07 10:40 | -34.41278 | 150.91048 | 1612 ft | 176 kts | 191° |
| 2026-05-07 10:40 | -34.42472 | 150.90902 | 1767 ft | 170 kts | 188° |
| 2026-05-07 10:41 | -34.43642 | 150.90702 | 1480 ft | 161 kts | 207° |
| 2026-05-07 10:41 | -34.44646 | 150.90265 | 1506 ft | 158 kts | 197° |
| 2026-05-07 10:41 | -34.45719 | 150.90079 | 1793 ft | 155 kts | 193° |
| 2026-05-07 10:41 | -34.46873 | 150.89988 | 1792 ft | 176 kts | 189° |
| 2026-05-07 10:42 | -34.48123 | 150.89887 | 1822 ft | 182 kts | 190° |
| 2026-05-07 10:42 | -34.49404 | 150.89741 | 1730 ft | 187 kts | 192° |
| 2026-05-07 10:42 | -34.50671 | 150.89515 | 1768 ft | 179 kts | 194° |
| 2026-05-07 10:42 | -34.51900 | 150.89236 | 1742 ft | 183 kts | 196° |
| 2026-05-07 10:43 | -34.53099 | 150.88899 | 1808 ft | 169 kts | 200° |
| 2026-05-07 10:43 | -34.54220 | 150.88510 | 2142 ft | 165 kts | 202° |
| 2026-05-07 10:43 | -34.55335 | 150.88076 | 2177 ft | 175 kts | 203° |
| 2026-05-07 10:43 | -34.56508 | 150.87627 | 1955 ft | 180 kts | 200° |
| 2026-05-07 10:44 | -34.57716 | 150.87267 | 1733 ft | 177 kts | 199° |
| 2026-05-07 10:44 | -34.58928 | 150.86921 | 1677 ft | 180 kts | 197° |
| 2026-05-07 10:44 | -34.60129 | 150.86576 | 1691 ft | 168 kts | 199° |
| 2026-05-07 10:44 | -34.61165 | 150.86244 | 1929 ft | 153 kts | 202° |
| 2026-05-07 10:45 | -34.62310 | 150.85949 | 1868 ft | 190 kts | 195° |
| 2026-05-07 10:45 | -34.63627 | 150.85802 | 1527 ft | 175 kts | 191° |
| 2026-05-07 10:45 | -34.64845 | 150.85632 | 1377 ft | 165 kts | 197° |
| 2026-05-07 10:45 | -34.65959 | 150.85398 | 1582 ft | 165 kts | 196° |
| 2026-05-07 10:46 | -34.67055 | 150.85178 | 1708 ft | 161 kts | 196° |
| 2026-05-07 10:46 | -34.68223 | 150.84945 | 1601 ft | 177 kts | 194° |
| 2026-05-07 10:46 | -34.69453 | 150.84696 | 1468 ft | 175 kts | 195° |
| 2026-05-07 10:46 | -34.70598 | 150.84458 | 1675 ft | 166 kts | 195° |
| 2026-05-07 10:47 | -34.71805 | 150.84198 | 1368 ft | 184 kts | 192° |
| 2026-05-07 10:47 | -34.73030 | 150.84116 | 1471 ft | 166 kts | 189° |
| 2026-05-07 10:47 | -34.74197 | 150.83965 | 1524 ft | 172 kts | 192° |
| 2026-05-07 10:47 | -34.75374 | 150.83710 | 1499 ft | 170 kts | 198° |
| 2026-05-07 10:48 | -34.76418 | 150.82956 | 1367 ft | 188 kts | 224° |
| 2026-05-07 10:48 | -34.77251 | 150.81629 | 427 ft | 207 kts | 248° |
| 2026-05-07 10:48 | -34.77785 | 150.80189 | 249 ft | 170 kts | 240° |
| 2026-05-07 10:48 | -34.78565 | 150.79094 | 317 ft | 179 kts | 227° |
| 2026-05-07 10:49 | -34.79530 | 150.78066 | 311 ft | 188 kts | 224° |
| 2026-05-07 10:49 | -34.80603 | 150.77202 | 266 ft | 177 kts | 216° |
| 2026-05-07 10:49 | -34.81678 | 150.76599 | 372 ft | 174 kts | 207° |
| 2026-05-07 10:49 | -34.82791 | 150.76044 | 364 ft | 170 kts | 204° |
| 2026-05-07 10:50 | -34.83946 | 150.75601 | 334 ft | 172 kts | 200° |
| 2026-05-07 10:50 | -34.85130 | 150.75354 | 407 ft | 176 kts | 188° |
| 2026-05-07 10:50 | -34.86354 | 150.75294 | 456 ft | 175 kts | 186° |
| 2026-05-07 10:50 | -34.87517 | 150.75686 | 516 ft | 180 kts | 160° |
| 2026-05-07 10:51 | -34.88671 | 150.76315 | 533 ft | 185 kts | 160° |
| 2026-05-07 10:51 | -34.89841 | 150.76908 | 679 ft | 185 kts | 162° |
| 2026-05-07 10:51 | -34.91085 | 150.77464 | 616 ft | 190 kts | 162° |
| 2026-05-07 10:51 | -34.92302 | 150.78008 | 817 ft | 181 kts | 164° |
| 2026-05-07 10:52 | -34.93535 | 150.78161 | 884 ft | 178 kts | 184° |
| 2026-05-07 10:52 | -34.94790 | 150.78084 | 1016 ft | 186 kts | 189° |
| 2026-05-07 10:52 | -34.96037 | 150.77921 | 1130 ft | 177 kts | 192° |
| 2026-05-07 10:52 | -34.97269 | 150.77645 | 1189 ft | 180 kts | 197° |
| 2026-05-07 10:53 | -34.98451 | 150.77300 | 1377 ft | 183 kts | 199° |
| 2026-05-07 10:53 | -34.99691 | 150.76847 | 1149 ft | 184 kts | 205° |
| 2026-05-07 10:53 | -35.00923 | 150.76325 | 997 ft | 184 kts | 203° |
| 2026-05-07 10:53 | -35.02105 | 150.75812 | 1065 ft | 179 kts | 204° |
| 2026-05-07 10:54 | -35.03262 | 150.75317 | 1110 ft | 183 kts | 203° |
| 2026-05-07 10:54 | -35.04473 | 150.74801 | 1018 ft | 190 kts | 203° |
| 2026-05-07 10:54 | -35.05748 | 150.74351 | 890 ft | 190 kts | 198° |
| 2026-05-07 10:54 | -35.06804 | 150.73988 | 1187 ft | 172 kts | 201° |
| 2026-05-07 10:55 | -35.08081 | 150.73741 | 1050 ft | 176 kts | 191° |
| 2026-05-07 10:55 | -35.09354 | 150.73434 | 661 ft | 185 kts | 196° |
| 2026-05-07 10:55 | -35.10520 | 150.73080 | 681 ft | 174 kts | 199° |
| 2026-05-07 10:55 | -35.11513 | 150.72667 | 480 ft | 129 kts | 215° |
| 2026-05-07 10:56 | -35.11327 | 150.71976 | 293 ft | 134 kts | 349° |
| 2026-05-07 10:56 | -35.11068 | 150.72725 | 299 ft | 117 kts | 159° |
| 2026-05-07 10:56 | -35.11474 | 150.72066 | 113 ft | 126 kts | 255° |
| 2026-05-07 10:56 | -35.12043 | 150.71535 | 386 ft | 109 kts | 213° |
| 2026-05-07 10:57 | -35.12557 | 150.71169 | 101 ft | 45 kts | 221° |
| 2026-05-07 10:57 | -35.12590 | 150.71112 | 25 ft | 2 kts | 168° |
| 2026-05-07 10:57 | -35.12602 | 150.71141 | 31 ft | 3 kts | 155° |
| 2026-05-07 10:57 | -35.12610 | 150.71162 | 43 ft | 11 kts | 193° |
| 2026-05-07 10:58 | -35.12667 | 150.71122 | 26 ft | 8 kts | 166° |
| 2026-05-07 10:58 | -35.12686 | 150.71128 | 15 ft | 2 kts | 162° |
| 2026-05-07 10:58 | -35.12696 | 150.71134 | 11 ft | 4 kts | 149° |
| 2026-05-07 10:58 | -35.12703 | 150.71139 | 10 ft | 0 kts | 148° |
| 2026-05-07 11:01 | -35.12705 | 150.71149 | 34 ft | 6 kts | 50° |
| 2026-05-07 11:01 | -35.12719 | 150.71207 | 43 ft | 14 kts | 71° |
| 2026-05-07 11:01 | -35.12726 | 150.71333 | 39 ft | 16 kts | 104° |
| 2026-05-07 11:02 | -35.12738 | 150.71451 | 40 ft | 15 kts | 34° |
| 2026-05-07 11:02 | -35.12743 | 150.71510 | 310 ft | 24 kts | 257° |
| 2026-05-07 11:02 | -35.12890 | 150.70944 | 971 ft | 102 kts | 264° |
| 2026-05-07 11:02 | -35.13492 | 150.70064 | 1085 ft | 158 kts | 231° |
| 2026-05-07 11:03 | -35.14013 | 150.69087 | 658 ft | 108 kts | 265° |
| 2026-05-07 11:03 | -35.14306 | 150.68527 | 761 ft | 47 kts | 159° |
| 2026-05-07 11:03 | -35.14546 | 150.68783 | 510 ft | 69 kts | 90° |
| 2026-05-07 11:03 | -35.14565 | 150.69391 | 252 ft | 57 kts | 98° |
| 2026-05-07 11:04 | -35.14588 | 150.69738 | 221 ft | 30 kts | 101° |
| 2026-05-07 11:04 | -35.14601 | 150.69914 | 208 ft | 11 kts | 101° |
| 2026-05-07 11:04 | -35.14581 | 150.70011 | 208 ft | 15 kts | 10° |
| 2026-05-07 11:04 | -35.14534 | 150.69999 | 207 ft | 4 kts | 275° |
| 2026-05-07 11:05 | -35.14534 | 150.69989 | 205 ft | 0 kts | 273° |
| 2026-05-07 11:05 | -35.14534 | 150.69982 | 218 ft | 5 kts | 307° |
| 2026-05-07 11:05 | -35.14498 | 150.69976 | 218 ft | 9 kts | 150° |
| 2026-05-07 11:05 | -35.14509 | 150.70005 | 219 ft | 1 kts | 194° |
| 2026-05-07 11:06 | -35.14519 | 150.70001 | 210 ft | 1 kts | 191° |
| 2026-05-07 11:06 | -35.14521 | 150.70000 | 205 ft | 0 kts | 191° |